Sloman Herakles — V2FY4 — position and weather

sailwx.info

Track history (hours):
 
Tides and Currents Weather Stations Pressure Air Temp Water Temp Dewpoint Dewpoint Depression Visibility Wind Speed Wind Dir Waves Ship Positions

Sloman Herakles

Last reported at 2016-Jul-30 04:21 UTC. Time now 2016-Jul-30 05:16 UTC.
Position N 51°21' E 003°46'.

Length 145 m; draft 9.6 m.

Type: Ship (hazmat cat D). MMSI: 305851000.

Date/timePositionNaut miles runAvg speedWind from/ knotsBaromVisibWave heightAir tempDewpointWater temp
2016-Jul-30 04:21N 51°21' E 003°46'0 0.0
2016-Jul-30 03:30N 51°21' E 003°46'0 0.0
2016-Jul-30 02:27N 51°21' E 003°46'0 0.0
2016-Jul-30 01:27N 51°21' E 003°46'0 0.0
2016-Jul-30 00:33N 51°21' E 003°46'0 0.0
2016-Jul-29 23:24N 51°21' E 003°46'0 0.0
2016-Jul-29 22:27N 51°21' E 003°46'0 0.0
2016-Jul-29 21:33N 51°21' E 003°46'0 0.0
2016-Jul-29 20:33N 51°21' E 003°46'0 0.0
2016-Jul-29 19:33N 51°21' E 003°46'0 0.0
2016-Jul-29 18:33N 51°21' E 003°46'0 0.0
2016-Jul-29 17:30N 51°21' E 003°46'0 0.0
2016-Jul-29 16:33N 51°21' E 003°46'0 0.0
2016-Jul-29 15:30N 51°21' E 003°46'0 0.0
2016-Jul-29 14:33N 51°21' E 003°46'0 0.0
2016-Jul-29 13:33N 51°21' E 003°46'0 0.0
2016-Jul-29 12:33N 51°21' E 003°46'0 0.0
2016-Jul-29 11:15N 51°21' E 003°46'0 0.0
2016-Jul-29 10:33N 51°21' E 003°46'0 0.0
2016-Jul-29 09:27N 51°21' E 003°46'0 0.0
2016-Jul-29 08:33N 51°21' E 003°46'0 0.0
2016-Jul-29 07:30N 51°21' E 003°46'0 0.0
2016-Jul-29 06:27N 51°21' E 003°46'0 0.0
2016-Jul-29 05:30N 51°21' E 003°46'0 0.0
2016-Jul-29 04:33N 51°21' E 003°46'0 0.0
2016-Jul-29 03:30N 51°21' E 003°46'0 0.0
2016-Jul-29 02:33N 51°21' E 003°46'0 0.0
2016-Jul-29 01:33N 51°21' E 003°46'0 0.0
2016-Jul-29 00:24N 51°21' E 003°46'0 0.0
2016-Jul-28 23:33N 51°21' E 003°46'0 0.0
2016-Jul-28 22:30N 51°21' E 003°46'0 0.0
2016-Jul-28 21:33N 51°21' E 003°46'0 0.0
2016-Jul-28 20:27N 51°21' E 003°46'0 0.0
2016-Jul-28 19:27N 51°21' E 003°46'0 0.0
2016-Jul-28 18:09N 51°21' E 003°46'0 0.0
2016-Jul-28 17:24N 51°21' E 003°46'0 0.0
2016-Jul-28 16:32N 51°21' E 003°46'0 0.0
2016-Jul-28 15:33N 51°21' E 003°46'0 0.0
2016-Jul-28 14:27N 51°21' E 003°46'0 0.0
2016-Jul-28 13:30N 51°21' E 003°46'0 0.0
2016-Jul-28 12:33N 51°21' E 003°46'0 0.0
2016-Jul-28 11:15N 51°21' E 003°46'0 0.0
2016-Jul-28 10:33N 51°21' E 003°46'0 0.0
2016-Jul-28 09:32N 51°21' E 003°46'0 0.0
2016-Jul-28 08:30N 51°21' E 003°46'4 4.6
2016-Jul-28 07:33N 51°24' E 003°42'9 8.7
2016-Jul-28 06:33N 51°25' E 003°28'1212.2
2016-Jul-28 05:33N 51°24' E 003°09'1110.9
2016-Jul-28 04:33N 51°22' E 002°52'11 9.3
2016-Jul-28 03:19N 51°21' E 002°34'1 1.0
2016-Jul-28 02:26N 51°20' E 002°32'0 0.0
2016-Jul-28 01:11N 51°20' E 002°32'0 0.1
2016-Jul-28 00:32N 51°20' E 002°32'0 0.2
2016-Jul-27 23:32N 51°21' E 002°32'2 1.9
2016-Jul-27 22:30N 51°22' E 002°30'8 9.0
2016-Jul-27 21:33N 51°18' E 002°19'10 9.7
2016-Jul-27 20:33N 51°13' E 002°06'1111.5
2016-Jul-27 19:33N 51°07' E 001°49'1212.3
2016-Jul-27 18:33N 50°59' E 001°36'6712.5
2016-Jul-27 13:09N 50°20' E 000°09'914.7
2016-Jul-27 12:31N 50°17' W 000°05'10712.0
2016-Jul-27 03:33N 49°49' W 002°46'1413.5
2016-Jul-27 02:31N 49°44' W 003°07'16813.0
2016-Jul-26 13:33N 47°55' W 006°21'53312.1
2016-Jul-24 17:33N 39°25' W 009°57'1312.8
2016-Jul-24 16:33N 39°12' W 009°56'1312.7
2016-Jul-24 15:33N 38°60' W 009°56'1312.9
2016-Jul-24 14:33N 38°47' W 009°57'1212.6
2016-Jul-24 13:33N 38°34' W 009°54'1212.3
2016-Jul-24 12:33N 38°22' W 009°50'1212.3
2016-Jul-24 11:33N 38°10' W 009°47'9412.6
2016-Jul-24 04:07N 36°41' W 009°11'1012.7
2016-Jul-24 03:19N 36°38' W 008°59'1012.7
2016-Jul-24 02:33N 36°36' W 008°47'1313.1
2016-Jul-24 01:33N 36°32' W 008°31'1413.4
2016-Jul-24 00:30N 36°29' W 008°15'13113.0
2016-Jul-23 14:23N 35°57' W 005°36'1012.6
2016-Jul-23 13:33N 35°59' W 005°24'5 5.2
2016-Jul-23 12:31N 35°55' W 005°20'0 0.0
2016-Jul-23 11:31N 35°55' W 005°20'0 0.1
2016-Jul-23 10:31N 35°55' W 005°20'0 0.0
2016-Jul-23 09:31N 35°55' W 005°20'0 0.0
2016-Jul-23 08:31N 35°55' W 005°20'0 0.2
2016-Jul-23 07:31N 35°55' W 005°20'5 4.7
2016-Jul-23 06:33N 35°56' W 005°14'18712.1
2016-Jul-22 15:07N 36°53' W 001°33'813.1
2016-Jul-22 14:32N 36°58' W 001°26'2813.8
2016-Jul-22 12:30N 37°17' W 000°60'1313.4
2016-Jul-22 11:33N 37°26' W 000°48'1313.2
2016-Jul-22 10:33N 37°33' W 000°34'1313.5
2016-Jul-22 09:33N 37°44' W 000°25'1813.4
2016-Jul-22 08:14N 37°59' W 000°13'1513.4
2016-Jul-22 07:07N 38°12' W 000°03'3413.2
2016-Jul-22 04:32N 38°40' E 000°21'1413.6
2016-Jul-22 03:31N 38°52' E 000°29'1413.9
2016-Jul-22 02:33N 39°05' E 000°37'1513.9
2016-Jul-22 01:30N 39°18' E 000°45'2713.7
2016-Jul-21 23:33N 39°42' E 000°60'1413.9
2016-Jul-21 22:33N 39°54' E 001°08'1414.1
2016-Jul-21 21:33N 40°07' E 001°16'1414.0
2016-Jul-21 20:33N 40°20' E 001°23'1413.9
2016-Jul-21 19:34N 40°32' E 001°31'1312.9
2016-Jul-21 18:34N 40°45' E 001°32'1312.7
2016-Jul-21 17:33N 40°55' E 001°22'1111.2
2016-Jul-21 16:34N 41°04' E 001°13'1 0.0
2016-Jul-20 05:26N 41°05' E 001°12'2 2.4
2016-Jul-20 04:33N 41°03' E 001°14'  
Track history (hours):
 
Tides and Currents Weather Stations Pressure Air Temp Water Temp Dewpoint Dewpoint Depression Visibility Wind Speed Wind Dir Waves Ship Positions

Sloman Herakles

Last reported at 2016-Jul-30 04:21 UTC. Time now 2016-Jul-30 05:16 UTC.
Position N 51°21' E 003°46'.

Length 145 m; draft 9.6 m.

Type: Ship (hazmat cat D). MMSI: 305851000.

Date/timePositionNaut miles runAvg speedWind from/ knotsBaromVisibWave heightAir tempDewpointWater temp
2016-Jul-30 04:21N 51°21' E 003°46'0 0.0
2016-Jul-30 03:30N 51°21' E 003°46'0 0.0
2016-Jul-30 02:27N 51°21' E 003°46'0 0.0
2016-Jul-30 01:27N 51°21' E 003°46'0 0.0
2016-Jul-30 00:33N 51°21' E 003°46'0 0.0
2016-Jul-29 23:24N 51°21' E 003°46'0 0.0
2016-Jul-29 22:27N 51°21' E 003°46'0 0.0
2016-Jul-29 21:33N 51°21' E 003°46'0 0.0
2016-Jul-29 20:33N 51°21' E 003°46'0 0.0
2016-Jul-29 19:33N 51°21' E 003°46'0 0.0
2016-Jul-29 18:33N 51°21' E 003°46'0 0.0
2016-Jul-29 17:30N 51°21' E 003°46'0 0.0
2016-Jul-29 16:33N 51°21' E 003°46'0 0.0
2016-Jul-29 15:30N 51°21' E 003°46'0 0.0
2016-Jul-29 14:33N 51°21' E 003°46'0 0.0
2016-Jul-29 13:33N 51°21' E 003°46'0 0.0
2016-Jul-29 12:33N 51°21' E 003°46'0 0.0
2016-Jul-29 11:15N 51°21' E 003°46'0 0.0
2016-Jul-29 10:33N 51°21' E 003°46'0 0.0
2016-Jul-29 09:27N 51°21' E 003°46'0 0.0
2016-Jul-29 08:33N 51°21' E 003°46'0 0.0
2016-Jul-29 07:30N 51°21' E 003°46'0 0.0
2016-Jul-29 06:27N 51°21' E 003°46'0 0.0
2016-Jul-29 05:30N 51°21' E 003°46'0 0.0
2016-Jul-29 04:33N 51°21' E 003°46'0 0.0
2016-Jul-29 03:30N 51°21' E 003°46'0 0.0
2016-Jul-29 02:33N 51°21' E 003°46'0 0.0
2016-Jul-29 01:33N 51°21' E 003°46'0 0.0
2016-Jul-29 00:24N 51°21' E 003°46'0 0.0
2016-Jul-28 23:33N 51°21' E 003°46'0 0.0
2016-Jul-28 22:30N 51°21' E 003°46'0 0.0
2016-Jul-28 21:33N 51°21' E 003°46'0 0.0
2016-Jul-28 20:27N 51°21' E 003°46'0 0.0
2016-Jul-28 19:27N 51°21' E 003°46'0 0.0
2016-Jul-28 18:09N 51°21' E 003°46'0 0.0
2016-Jul-28 17:24N 51°21' E 003°46'0 0.0
2016-Jul-28 16:32N 51°21' E 003°46'0 0.0
2016-Jul-28 15:33N 51°21' E 003°46'0 0.0
2016-Jul-28 14:27N 51°21' E 003°46'0 0.0
2016-Jul-28 13:30N 51°21' E 003°46'0 0.0
2016-Jul-28 12:33N 51°21' E 003°46'0 0.0
2016-Jul-28 11:15N 51°21' E 003°46'0 0.0
2016-Jul-28 10:33N 51°21' E 003°46'0 0.0
2016-Jul-28 09:32N 51°21' E 003°46'0 0.0
2016-Jul-28 08:30N 51°21' E 003°46'4 4.6
2016-Jul-28 07:33N 51°24' E 003°42'9 8.7
2016-Jul-28 06:33N 51°25' E 003°28'1212.2
2016-Jul-28 05:33N 51°24' E 003°09'1110.9
2016-Jul-28 04:33N 51°22' E 002°52'11 9.3
2016-Jul-28 03:19N 51°21' E 002°34'1 1.0
2016-Jul-28 02:26N 51°20' E 002°32'0 0.0
2016-Jul-28 01:11N 51°20' E 002°32'0 0.1
2016-Jul-28 00:32N 51°20' E 002°32'0 0.2
2016-Jul-27 23:32N 51°21' E 002°32'2 1.9
2016-Jul-27 22:30N 51°22' E 002°30'8 9.0
2016-Jul-27 21:33N 51°18' E 002°19'10 9.7
2016-Jul-27 20:33N 51°13' E 002°06'1111.5
2016-Jul-27 19:33N 51°07' E 001°49'1212.3
2016-Jul-27 18:33N 50°59' E 001°36'6712.5
2016-Jul-27 13:09N 50°20' E 000°09'914.7
2016-Jul-27 12:31N 50°17' W 000°05'10712.0
2016-Jul-27 03:33N 49°49' W 002°46'1413.5
2016-Jul-27 02:31N 49°44' W 003°07'16813.0
2016-Jul-26 13:33N 47°55' W 006°21'53312.1
2016-Jul-24 17:33N 39°25' W 009°57'1312.8
2016-Jul-24 16:33N 39°12' W 009°56'1312.7
2016-Jul-24 15:33N 38°60' W 009°56'1312.9
2016-Jul-24 14:33N 38°47' W 009°57'1212.6
2016-Jul-24 13:33N 38°34' W 009°54'1212.3
2016-Jul-24 12:33N 38°22' W 009°50'1212.3
2016-Jul-24 11:33N 38°10' W 009°47'9412.6
2016-Jul-24 04:07N 36°41' W 009°11'1012.7
2016-Jul-24 03:19N 36°38' W 008°59'1012.7
2016-Jul-24 02:33N 36°36' W 008°47'1313.1
2016-Jul-24 01:33N 36°32' W 008°31'1413.4
2016-Jul-24 00:30N 36°29' W 008°15'13113.0
2016-Jul-23 14:23N 35°57' W 005°36'1012.6
2016-Jul-23 13:33N 35°59' W 005°24'5 5.2
2016-Jul-23 12:31N 35°55' W 005°20'0 0.0
2016-Jul-23 11:31N 35°55' W 005°20'0 0.1
2016-Jul-23 10:31N 35°55' W 005°20'0 0.0
2016-Jul-23 09:31N 35°55' W 005°20'0 0.0
2016-Jul-23 08:31N 35°55' W 005°20'0 0.2
2016-Jul-23 07:31N 35°55' W 005°20'5 4.7
2016-Jul-23 06:33N 35°56' W 005°14'18712.1
2016-Jul-22 15:07N 36°53' W 001°33'813.1
2016-Jul-22 14:32N 36°58' W 001°26'2813.8
2016-Jul-22 12:30N 37°17' W 000°60'1313.4
2016-Jul-22 11:33N 37°26' W 000°48'1313.2
2016-Jul-22 10:33N 37°33' W 000°34'1313.5
2016-Jul-22 09:33N 37°44' W 000°25'1813.4
2016-Jul-22 08:14N 37°59' W 000°13'1513.4
2016-Jul-22 07:07N 38°12' W 000°03'3413.2
2016-Jul-22 04:32N 38°40' E 000°21'1413.6
2016-Jul-22 03:31N 38°52' E 000°29'1413.9
2016-Jul-22 02:33N 39°05' E 000°37'1513.9
2016-Jul-22 01:30N 39°18' E 000°45'2713.7
2016-Jul-21 23:33N 39°42' E 000°60'1413.9
2016-Jul-21 22:33N 39°54' E 001°08'1414.1
2016-Jul-21 21:33N 40°07' E 001°16'1414.0
2016-Jul-21 20:33N 40°20' E 001°23'1413.9
2016-Jul-21 19:34N 40°32' E 001°31'1312.9
2016-Jul-21 18:34N 40°45' E 001°32'1312.7
2016-Jul-21 17:33N 40°55' E 001°22'1111.2
2016-Jul-21 16:34N 41°04' E 001°13'1 0.0
2016-Jul-20 05:26N 41°05' E 001°12'2 2.4
2016-Jul-20 04:33N 41°03' E 001°14'  

Dump ship's entire track history